sensor_id;sensor_type;location;lat;lon;timestamp;P1;durP1;ratioP1;P2;durP2;ratioP2
18194;SDS011;9223;50.988;3.162;2022-09-27T00:03:52;3.75;;;1.27;;
18194;SDS011;9223;50.988;3.162;2022-09-27T00:09:56;2.92;;;1.40;;
18194;SDS011;9223;50.988;3.162;2022-09-27T00:16:02;4.95;;;1.58;;
18194;SDS011;9223;50.988;3.162;2022-09-27T00:22:09;2.90;;;1.20;;
18194;SDS011;9223;50.988;3.162;2022-09-27T00:28:12;3.35;;;1.52;;
18194;SDS011;9223;50.988;3.162;2022-09-27T00:34:22;4.85;;;2.00;;
18194;SDS011;9223;50.988;3.162;2022-09-27T00:40:26;3.30;;;1.50;;
18194;SDS011;9223;50.988;3.162;2022-09-27T00:46:30;1.77;;;1.00;;
18194;SDS011;9223;50.988;3.162;2022-09-27T00:52:39;2.28;;;1.45;;
18194;SDS011;9223;50.988;3.162;2022-09-27T00:58:45;1.52;;;1.30;;
18194;SDS011;9223;50.988;3.162;2022-09-27T01:04:50;4.15;;;1.50;;
18194;SDS011;9223;50.988;3.162;2022-09-27T01:10:58;4.05;;;1.70;;
18194;SDS011;9223;50.988;3.162;2022-09-27T01:17:09;7.03;;;1.95;;
18194;SDS011;9223;50.988;3.162;2022-09-27T01:23:20;6.38;;;2.10;;
18194;SDS011;9223;50.988;3.162;2022-09-27T01:29:27;3.35;;;1.95;;
18194;SDS011;9223;50.988;3.162;2022-09-27T01:35:35;4.57;;;1.85;;
18194;SDS011;9223;50.988;3.162;2022-09-27T01:41:44;3.17;;;1.77;;
18194;SDS011;9223;50.988;3.162;2022-09-27T01:47:50;5.70;;;2.28;;
18194;SDS011;9223;50.988;3.162;2022-09-27T01:53:57;3.80;;;1.52;;
18194;SDS011;9223;50.988;3.162;2022-09-27T02:00:03;2.78;;;1.00;;
18194;SDS011;9223;50.988;3.162;2022-09-27T02:06:12;2.22;;;0.75;;
18194;SDS011;9223;50.988;3.162;2022-09-27T02:12:19;1.10;;;0.70;;
18194;SDS011;9223;50.988;3.162;2022-09-27T02:18:26;2.45;;;0.75;;
18194;SDS011;9223;50.988;3.162;2022-09-27T02:24:32;1.58;;;0.80;;
18194;SDS011;9223;50.988;3.162;2022-09-27T02:30:41;1.13;;;0.47;;
18194;SDS011;9223;50.988;3.162;2022-09-27T02:36:44;2.10;;;0.88;;
18194;SDS011;9223;50.988;3.162;2022-09-27T02:42:48;2.10;;;0.70;;
18194;SDS011;9223;50.988;3.162;2022-09-27T02:48:55;1.17;;;0.68;;
18194;SDS011;9223;50.988;3.162;2022-09-27T02:55:07;1.92;;;0.70;;
18194;SDS011;9223;50.988;3.162;2022-09-27T03:01:16;0.82;;;0.60;;
18194;SDS011;9223;50.988;3.162;2022-09-27T03:07:23;1.20;;;0.80;;
18194;SDS011;9223;50.988;3.162;2022-09-27T03:13:27;1.17;;;0.95;;
18194;SDS011;9223;50.988;3.162;2022-09-27T03:19:31;1.40;;;0.98;;
18194;SDS011;9223;50.988;3.162;2022-09-27T03:25:36;2.40;;;1.10;;
18194;SDS011;9223;50.988;3.162;2022-09-27T03:31:42;1.08;;;0.90;;
18194;SDS011;9223;50.988;3.162;2022-09-27T03:37:46;2.60;;;1.20;;
18194;SDS011;9223;50.988;3.162;2022-09-27T03:43:51;1.52;;;1.25;;
18194;SDS011;9223;50.988;3.162;2022-09-27T03:50:00;2.85;;;1.58;;
18194;SDS011;9223;50.988;3.162;2022-09-27T03:56:03;3.33;;;1.90;;
18194;SDS011;9223;50.988;3.162;2022-09-27T04:02:09;2.92;;;1.50;;
18194;SDS011;9223;50.988;3.162;2022-09-27T04:08:12;2.47;;;1.70;;
18194;SDS011;9223;50.988;3.162;2022-09-27T04:14:18;2.53;;;1.40;;
18194;SDS011;9223;50.988;3.162;2022-09-27T04:20:24;1.55;;;1.27;;
18194;SDS011;9223;50.988;3.162;2022-09-27T04:26:30;2.28;;;1.50;;
18194;SDS011;9223;50.988;3.162;2022-09-27T04:32:33;3.08;;;1.40;;
18194;SDS011;9223;50.988;3.162;2022-09-27T04:38:40;1.63;;;1.52;;
18194;SDS011;9223;50.988;3.162;2022-09-27T04:44:44;1.63;;;1.40;;
18194;SDS011;9223;50.988;3.162;2022-09-27T04:50:54;3.67;;;1.65;;
18194;SDS011;9223;50.988;3.162;2022-09-27T04:57:02;3.47;;;1.90;;
18194;SDS011;9223;50.988;3.162;2022-09-27T05:03:05;3.42;;;2.15;;
18194;SDS011;9223;50.988;3.162;2022-09-27T05:09:09;2.58;;;1.80;;
18194;SDS011;9223;50.988;3.162;2022-09-27T05:15:19;3.35;;;2.10;;
18194;SDS011;9223;50.988;3.162;2022-09-27T05:21:24;6.55;;;2.60;;
18194;SDS011;9223;50.988;3.162;2022-09-27T05:27:28;3.75;;;1.60;;
18194;SDS011;9223;50.988;3.162;2022-09-27T05:33:33;2.35;;;1.27;;
18194;SDS011;9223;50.988;3.162;2022-09-27T05:39:36;3.28;;;1.48;;
18194;SDS011;9223;50.988;3.162;2022-09-27T05:45:40;1.10;;;0.90;;
18194;SDS011;9223;50.988;3.162;2022-09-27T05:51:46;1.13;;;0.93;;
18194;SDS011;9223;50.988;3.162;2022-09-27T05:57:53;1.35;;;0.82;;
18194;SDS011;9223;50.988;3.162;2022-09-27T06:03:57;1.95;;;1.30;;
18194;SDS011;9223;50.988;3.162;2022-09-27T06:10:02;3.08;;;0.98;;
18194;SDS011;9223;50.988;3.162;2022-09-27T06:16:09;1.73;;;1.05;;
18194;SDS011;9223;50.988;3.162;2022-09-27T06:22:13;2.28;;;1.63;;
18194;SDS011;9223;50.988;3.162;2022-09-27T06:28:18;2.40;;;1.55;;
18194;SDS011;9223;50.988;3.162;2022-09-27T06:34:21;3.00;;;1.30;;
18194;SDS011;9223;50.988;3.162;2022-09-27T06:40:27;2.78;;;1.33;;
18194;SDS011;9223;50.988;3.162;2022-09-27T06:46:32;2.05;;;1.40;;
18194;SDS011;9223;50.988;3.162;2022-09-27T06:52:35;2.97;;;1.67;;
18194;SDS011;9223;50.988;3.162;2022-09-27T06:58:38;3.58;;;1.27;;
18194;SDS011;9223;50.988;3.162;2022-09-27T07:05:01;2.92;;;1.02;;
18194;SDS011;9223;50.988;3.162;2022-09-27T07:11:07;2.00;;;1.30;;
18194;SDS011;9223;50.988;3.162;2022-09-27T07:17:10;3.05;;;1.20;;
18194;SDS011;9223;50.988;3.162;2022-09-27T07:23:16;1.17;;;1.00;;
18194;SDS011;9223;50.988;3.162;2022-09-27T07:29:21;2.60;;;1.00;;
18194;SDS011;9223;50.988;3.162;2022-09-27T07:35:27;3.83;;;1.35;;
18194;SDS011;9223;50.988;3.162;2022-09-27T07:41:32;2.75;;;1.00;;
18194;SDS011;9223;50.988;3.162;2022-09-27T07:47:37;3.78;;;1.20;;
18194;SDS011;9223;50.988;3.162;2022-09-27T07:53:40;1.88;;;0.95;;
18194;SDS011;9223;50.988;3.162;2022-09-27T07:59:45;3.15;;;1.05;;
18194;SDS011;9223;50.988;3.162;2022-09-27T08:05:50;4.13;;;1.35;;
18194;SDS011;9223;50.988;3.162;2022-09-27T08:11:54;4.60;;;1.30;;
18194;SDS011;9223;50.988;3.162;2022-09-27T08:18:00;3.60;;;1.25;;
18194;SDS011;9223;50.988;3.162;2022-09-27T08:24:04;5.10;;;1.17;;
18194;SDS011;9223;50.988;3.162;2022-09-27T08:30:08;2.55;;;1.00;;
18194;SDS011;9223;50.988;3.162;2022-09-27T08:36:13;3.03;;;0.90;;
18194;SDS011;9223;50.988;3.162;2022-09-27T08:42:18;2.13;;;1.10;;
18194;SDS011;9223;50.988;3.162;2022-09-27T08:48:24;2.33;;;0.70;;
18194;SDS011;9223;50.988;3.162;2022-09-27T08:54:31;2.15;;;0.80;;
18194;SDS011;9223;50.988;3.162;2022-09-27T09:00:35;3.38;;;1.02;;
18194;SDS011;9223;50.988;3.162;2022-09-27T09:06:39;3.20;;;0.82;;
18194;SDS011;9223;50.988;3.162;2022-09-27T09:12:46;1.95;;;0.57;;
18194;SDS011;9223;50.988;3.162;2022-09-27T09:18:55;4.18;;;0.93;;
18194;SDS011;9223;50.988;3.162;2022-09-27T09:25:06;3.47;;;1.00;;
18194;SDS011;9223;50.988;3.162;2022-09-27T09:31:20;2.00;;;1.00;;
18194;SDS011;9223;50.988;3.162;2022-09-27T09:37:29;4.07;;;1.23;;
18194;SDS011;9223;50.988;3.162;2022-09-27T09:43:38;5.22;;;1.30;;
18194;SDS011;9223;50.988;3.162;2022-09-27T09:49:45;4.95;;;1.60;;
18194;SDS011;9223;50.988;3.162;2022-09-27T09:55:51;4.97;;;1.33;;
18194;SDS011;9223;50.988;3.162;2022-09-27T10:02:06;3.65;;;0.82;;
18194;SDS011;9223;50.988;3.162;2022-09-27T10:08:18;2.63;;;0.77;;
18194;SDS011;9223;50.988;3.162;2022-09-27T10:14:24;2.33;;;0.88;;
18194;SDS011;9223;50.988;3.162;2022-09-27T10:20:32;5.00;;;1.27;;
18194;SDS011;9223;50.988;3.162;2022-09-27T10:26:37;5.13;;;0.90;;
18194;SDS011;9223;50.988;3.162;2022-09-27T10:32:43;2.33;;;0.88;;
18194;SDS011;9223;50.988;3.162;2022-09-27T10:38:51;2.47;;;1.23;;
18194;SDS011;9223;50.988;3.162;2022-09-27T10:44:56;3.63;;;0.85;;
18194;SDS011;9223;50.988;3.162;2022-09-27T10:51:00;3.38;;;0.85;;
18194;SDS011;9223;50.988;3.162;2022-09-27T10:57:04;4.15;;;0.93;;
18194;SDS011;9223;50.988;3.162;2022-09-27T11:03:13;3.40;;;1.40;;
18194;SDS011;9223;50.988;3.162;2022-09-27T11:09:18;3.80;;;0.80;;
18194;SDS011;9223;50.988;3.162;2022-09-27T11:15:24;2.85;;;0.90;;
18194;SDS011;9223;50.988;3.162;2022-09-27T11:21:32;1.33;;;0.82;;
18194;SDS011;9223;50.988;3.162;2022-09-27T11:27:43;2.85;;;1.00;;
18194;SDS011;9223;50.988;3.162;2022-09-27T11:33:54;3.75;;;1.30;;
18194;SDS011;9223;50.988;3.162;2022-09-27T11:40:06;3.03;;;0.95;;
18194;SDS011;9223;50.988;3.162;2022-09-27T11:46:15;4.53;;;1.00;;
18194;SDS011;9223;50.988;3.162;2022-09-27T11:52:37;2.22;;;0.93;;
18194;SDS011;9223;50.988;3.162;2022-09-27T11:58:49;6.75;;;1.15;;
18194;SDS011;9223;50.988;3.162;2022-09-27T12:04:59;1.85;;;0.90;;
18194;SDS011;9223;50.988;3.162;2022-09-27T12:11:13;4.40;;;1.00;;
18194;SDS011;9223;50.988;3.162;2022-09-27T12:17:20;4.28;;;1.40;;
18194;SDS011;9223;50.988;3.162;2022-09-27T12:23:28;3.63;;;1.15;;
18194;SDS011;9223;50.988;3.162;2022-09-27T12:29:37;3.95;;;1.00;;
18194;SDS011;9223;50.988;3.162;2022-09-27T12:35:45;5.10;;;0.90;;
18194;SDS011;9223;50.988;3.162;2022-09-27T12:41:52;2.95;;;1.30;;
18194;SDS011;9223;50.988;3.162;2022-09-27T12:48:04;3.20;;;1.10;;
18194;SDS011;9223;50.988;3.162;2022-09-27T12:54:22;2.88;;;0.93;;
18194;SDS011;9223;50.988;3.162;2022-09-27T13:00:31;2.80;;;0.80;;
18194;SDS011;9223;50.988;3.162;2022-09-27T13:13:01;4.03;;;1.05;;
18194;SDS011;9223;50.988;3.162;2022-09-27T13:19:12;3.85;;;0.80;;
18194;SDS011;9223;50.988;3.162;2022-09-27T13:32:10;4.50;;;1.02;;
18194;SDS011;9223;50.988;3.162;2022-09-27T13:38:19;2.88;;;0.80;;
18194;SDS011;9223;50.988;3.162;2022-09-27T13:44:24;1.95;;;0.93;;
18194;SDS011;9223;50.988;3.162;2022-09-27T13:50:35;6.00;;;1.08;;
18194;SDS011;9223;50.988;3.162;2022-09-27T13:56:50;2.03;;;0.70;;
18194;SDS011;9223;50.988;3.162;2022-09-27T14:03:03;3.15;;;1.30;;
18194;SDS011;9223;50.988;3.162;2022-09-27T14:09:12;3.20;;;1.08;;
18194;SDS011;9223;50.988;3.162;2022-09-27T14:15:18;2.53;;;0.80;;
18194;SDS011;9223;50.988;3.162;2022-09-27T14:21:26;3.13;;;1.02;;
18194;SDS011;9223;50.988;3.162;2022-09-27T14:27:35;3.50;;;1.20;;
18194;SDS011;9223;50.988;3.162;2022-09-27T14:33:38;5.82;;;1.75;;
18194;SDS011;9223;50.988;3.162;2022-09-27T14:39:42;3.95;;;0.82;;
18194;SDS011;9223;50.988;3.162;2022-09-27T14:45:47;8.15;;;1.63;;
18194;SDS011;9223;50.988;3.162;2022-09-27T14:51:52;3.63;;;1.10;;
18194;SDS011;9223;50.988;3.162;2022-09-27T14:57:57;4.07;;;1.27;;
18194;SDS011;9223;50.988;3.162;2022-09-27T15:04:05;6.28;;;1.20;;
18194;SDS011;9223;50.988;3.162;2022-09-27T15:10:12;6.90;;;1.10;;
18194;SDS011;9223;50.988;3.162;2022-09-27T15:16:17;3.92;;;1.45;;
18194;SDS011;9223;50.988;3.162;2022-09-27T15:22:28;3.00;;;1.33;;
18194;SDS011;9223;50.988;3.162;2022-09-27T15:28:34;6.57;;;1.60;;
18194;SDS011;9223;50.988;3.162;2022-09-27T15:34:38;5.65;;;1.85;;
18194;SDS011;9223;50.988;3.162;2022-09-27T15:47:18;9.50;;;3.45;;
18194;SDS011;9223;50.988;3.162;2022-09-27T15:53:43;7.65;;;2.45;;
18194;SDS011;9223;50.988;3.162;2022-09-27T15:59:46;6.50;;;2.13;;
18194;SDS011;9223;50.988;3.162;2022-09-27T16:05:51;5.88;;;1.63;;
18194;SDS011;9223;50.988;3.162;2022-09-27T16:11:59;7.85;;;1.73;;
18194;SDS011;9223;50.988;3.162;2022-09-27T16:18:03;5.82;;;1.88;;
18194;SDS011;9223;50.988;3.162;2022-09-27T16:24:08;3.35;;;1.70;;
18194;SDS011;9223;50.988;3.162;2022-09-27T16:30:12;5.07;;;1.65;;
18194;SDS011;9223;50.988;3.162;2022-09-27T16:36:16;6.20;;;2.35;;
18194;SDS011;9223;50.988;3.162;2022-09-27T16:42:22;13.02;;;4.15;;
18194;SDS011;9223;50.988;3.162;2022-09-27T16:48:27;6.97;;;2.38;;
18194;SDS011;9223;50.988;3.162;2022-09-27T16:54:30;8.23;;;3.35;;
18194;SDS011;9223;50.988;3.162;2022-09-27T17:00:35;8.48;;;3.08;;
18194;SDS011;9223;50.988;3.162;2022-09-27T17:06:41;2.70;;;1.33;;
18194;SDS011;9223;50.988;3.162;2022-09-27T17:12:44;4.88;;;1.63;;
18194;SDS011;9223;50.988;3.162;2022-09-27T17:18:49;5.38;;;1.70;;
18194;SDS011;9223;50.988;3.162;2022-09-27T17:24:53;7.05;;;2.08;;
18194;SDS011;9223;50.988;3.162;2022-09-27T17:31:04;3.45;;;1.65;;
18194;SDS011;9223;50.988;3.162;2022-09-27T17:37:10;3.90;;;1.88;;
18194;SDS011;9223;50.988;3.162;2022-09-27T17:43:14;2.28;;;1.08;;
18194;SDS011;9223;50.988;3.162;2022-09-27T17:49:17;2.15;;;1.15;;
18194;SDS011;9223;50.988;3.162;2022-09-27T17:55:40;3.60;;;1.65;;
18194;SDS011;9223;50.988;3.162;2022-09-27T18:01:44;1.98;;;1.30;;
18194;SDS011;9223;50.988;3.162;2022-09-27T18:07:48;4.15;;;2.00;;
18194;SDS011;9223;50.988;3.162;2022-09-27T18:13:53;3.85;;;2.45;;
18194;SDS011;9223;50.988;3.162;2022-09-27T18:19:59;3.40;;;2.38;;
18194;SDS011;9223;50.988;3.162;2022-09-27T18:26:02;1.50;;;1.40;;
18194;SDS011;9223;50.988;3.162;2022-09-27T18:32:09;3.80;;;1.50;;
18194;SDS011;9223;50.988;3.162;2022-09-27T18:38:13;2.15;;;1.20;;
18194;SDS011;9223;50.988;3.162;2022-09-27T18:44:17;1.70;;;1.08;;
18194;SDS011;9223;50.988;3.162;2022-09-27T18:50:22;2.58;;;1.45;;
18194;SDS011;9223;50.988;3.162;2022-09-27T18:56:26;2.45;;;1.80;;
18194;SDS011;9223;50.988;3.162;2022-09-27T19:02:29;2.45;;;1.95;;
18194;SDS011;9223;50.988;3.162;2022-09-27T19:08:35;3.50;;;1.88;;
18194;SDS011;9223;50.988;3.162;2022-09-27T19:14:38;3.03;;;2.38;;
18194;SDS011;9223;50.988;3.162;2022-09-27T19:20:42;4.55;;;3.15;;
18194;SDS011;9223;50.988;3.162;2022-09-27T19:26:47;4.25;;;1.60;;
18194;SDS011;9223;50.988;3.162;2022-09-27T19:32:54;5.55;;;2.40;;
18194;SDS011;9223;50.988;3.162;2022-09-27T19:38:57;5.35;;;2.33;;
18194;SDS011;9223;50.988;3.162;2022-09-27T19:45:04;4.28;;;2.30;;
18194;SDS011;9223;50.988;3.162;2022-09-27T19:51:12;3.80;;;1.90;;
18194;SDS011;9223;50.988;3.162;2022-09-27T19:57:16;5.65;;;2.00;;
18194;SDS011;9223;50.988;3.162;2022-09-27T20:03:21;4.38;;;1.70;;
18194;SDS011;9223;50.988;3.162;2022-09-27T20:09:24;3.88;;;1.83;;
18194;SDS011;9223;50.988;3.162;2022-09-27T20:15:28;3.92;;;1.67;;
18194;SDS011;9223;50.988;3.162;2022-09-27T20:21:35;3.25;;;2.10;;
18194;SDS011;9223;50.988;3.162;2022-09-27T20:27:39;3.72;;;1.92;;
18194;SDS011;9223;50.988;3.162;2022-09-27T20:33:43;1.83;;;1.63;;
18194;SDS011;9223;50.988;3.162;2022-09-27T20:39:48;2.58;;;1.50;;
18194;SDS011;9223;50.988;3.162;2022-09-27T20:45:58;2.20;;;1.48;;
18194;SDS011;9223;50.988;3.162;2022-09-27T20:52:03;2.10;;;1.50;;
18194;SDS011;9223;50.988;3.162;2022-09-27T20:58:12;6.50;;;3.67;;
18194;SDS011;9223;50.988;3.162;2022-09-27T21:04:16;5.18;;;2.17;;
18194;SDS011;9223;50.988;3.162;2022-09-27T21:10:21;2.00;;;1.80;;
18194;SDS011;9223;50.988;3.162;2022-09-27T21:16:34;3.28;;;1.85;;
18194;SDS011;9223;50.988;3.162;2022-09-27T21:22:38;2.88;;;1.48;;
18194;SDS011;9223;50.988;3.162;2022-09-27T21:28:42;1.73;;;1.27;;
18194;SDS011;9223;50.988;3.162;2022-09-27T21:34:47;1.38;;;1.23;;
18194;SDS011;9223;50.988;3.162;2022-09-27T21:40:54;1.98;;;1.38;;
18194;SDS011;9223;50.988;3.162;2022-09-27T21:46:58;3.25;;;1.42;;
18194;SDS011;9223;50.988;3.162;2022-09-27T21:53:03;2.40;;;1.38;;
18194;SDS011;9223;50.988;3.162;2022-09-27T21:59:18;2.35;;;1.40;;
18194;SDS011;9223;50.988;3.162;2022-09-27T22:05:43;2.38;;;1.40;;
18194;SDS011;9223;50.988;3.162;2022-09-27T22:11:47;2.63;;;1.33;;
18194;SDS011;9223;50.988;3.162;2022-09-27T22:17:51;3.25;;;1.55;;
18194;SDS011;9223;50.988;3.162;2022-09-27T22:23:54;2.63;;;1.90;;
18194;SDS011;9223;50.988;3.162;2022-09-27T22:30:00;2.40;;;1.30;;
18194;SDS011;9223;50.988;3.162;2022-09-27T22:36:11;2.65;;;1.35;;
18194;SDS011;9223;50.988;3.162;2022-09-27T22:42:15;2.47;;;1.40;;
18194;SDS011;9223;50.988;3.162;2022-09-27T22:48:20;2.45;;;1.50;;
18194;SDS011;9223;50.988;3.162;2022-09-27T22:54:24;2.17;;;1.40;;
18194;SDS011;9223;50.988;3.162;2022-09-27T23:00:28;4.03;;;1.90;;
18194;SDS011;9223;50.988;3.162;2022-09-27T23:06:34;3.88;;;1.52;;
18194;SDS011;9223;50.988;3.162;2022-09-27T23:12:39;4.32;;;1.50;;
18194;SDS011;9223;50.988;3.162;2022-09-27T23:18:42;2.75;;;1.30;;
18194;SDS011;9223;50.988;3.162;2022-09-27T23:24:49;2.78;;;1.25;;
18194;SDS011;9223;50.988;3.162;2022-09-27T23:30:53;3.88;;;1.55;;
18194;SDS011;9223;50.988;3.162;2022-09-27T23:36:56;3.75;;;1.73;;
18194;SDS011;9223;50.988;3.162;2022-09-27T23:43:01;2.33;;;1.23;;
18194;SDS011;9223;50.988;3.162;2022-09-27T23:49:05;3.42;;;1.50;;
18194;SDS011;9223;50.988;3.162;2022-09-27T23:55:08;3.33;;;1.40;;
